Time;durP1;ratioP1;P1;durP2;ratioP2;P2;SDS_P1;SDS_P2;PMS_P1;PMS_P2;Temp;Humidity;BMP_temperature;BMP_pressure;BME280_temperature;BME280_humidity;BME280_pressure;Samples;Min_cycle;Max_cycle;Signal;HPM_P1;HPM_P2
2023/10/31 00:01:51;;;;;;;0.50;0.10;;;13.40;99.90;;;;;;4901666;29;20525;-73
2023/10/31 00:04:19;;;;;;;0.70;0.60;;;;;;;;;;4902707;29;20525;-74
2023/10/31 00:06:47;;;;;;;0.90;0.80;;;13.40;45.70;;;;;;4897521;29;20512;-74
2023/10/31 00:09:15;;;;;;;0.60;0.33;;;13.00;1.00;;;;;;4899482;29;20511;-72
2023/10/31 00:11:44;;;;;;;0.50;0.10;;;13.40;1.00;;;;;;4901912;29;20475;-73
2023/10/31 00:14:12;;;;;;;0.50;0.10;;;13.40;1.00;;;;;;4901945;29;21049;-74
2023/10/31 00:16:59;;;;;;;0.50;0.10;;;13.40;1.00;;;;;;4902144;29;20519;-72
2023/10/31 00:19:27;;;;;;;0.60;0.20;;;13.30;1.00;;;;;;4901531;29;20494;-74
2023/10/31 00:21:55;;;;;;;0.50;0.20;;;13.30;1.00;;;;;;4905473;29;20595;-73
2023/10/31 00:24:23;;;;;;;0.63;0.30;;;13.30;1.00;;;;;;4906277;29;20454;-73
2023/10/31 00:26:51;;;;;;;1.00;0.50;;;13.30;1.00;;;;;;4905969;29;20467;-74
2023/10/31 00:29:19;;;;;;;0.50;0.10;;;13.20;1.00;;;;;;4904357;29;20448;-73
2023/10/31 00:31:46;;;;;;;5.97;0.80;;;13.20;1.00;;;;;;4920333;23;20532;-76
2023/10/31 00:34:16;;;;;;;0.90;0.90;;;13.20;1.00;;;;;;4883833;29;20453;-75
2023/10/31 00:36:44;;;;;;;0.57;0.20;;;13.30;1.00;;;;;;4882363;29;20830;-75
2023/10/31 00:39:11;;;;;;;0.60;0.30;;;13.20;1.00;;;;;;4897758;29;20490;-75
2023/10/31 00:41:40;;;;;;;0.50;0.20;;;13.30;1.00;;;;;;4899056;29;20503;-75
2023/10/31 00:44:08;;;;;;;0.90;0.83;;;13.20;1.00;;;;;;4899643;29;20488;-76
2023/10/31 00:46:36;;;;;;;0.50;0.13;;;13.20;1.00;;;;;;4897428;29;20478;-76
2023/10/31 00:49:04;;;;;;;0.50;0.10;;;13.10;1.00;;;;;;4883763;29;20463;-75
2023/10/31 00:51:33;;;;;;;0.60;0.20;;;13.20;1.00;;;;;;4895948;29;21004;-73
2023/10/31 00:54:01;;;;;;;0.60;0.20;;;13.20;1.00;;;;;;4897571;29;20483;-76
2023/10/31 00:56:34;;;;;;;0.50;0.10;;;13.20;1.00;;;;;;4897513;29;20502;-77
2023/10/31 00:59:02;;;;;;;0.50;0.20;;;13.20;1.00;;;;;;4892080;29;20513;-77
2023/10/31 05:00:10;;;;;;;1.27;0.43;;;;;;;;;;5856000;23;20422;31
2023/10/31 05:02:39;;;;;;;0.50;0.10;;;11.80;99.90;;;;;;4839768;29;20472;-76
2023/10/31 05:05:08;;;;;;;0.50;0.20;;;11.70;1.00;;;;;;4853787;29;20512;-77
2023/10/31 05:07:36;;;;;;;0.50;0.20;;;11.70;1.00;;;;;;4841617;29;20522;-76
2023/10/31 05:10:04;;;;;;;0.50;0.20;;;11.70;1.00;;;;;;4841609;29;20449;-76
2023/10/31 05:12:32;;;;;;;0.83;0.50;;;11.60;1.00;;;;;;4859106;29;20521;-76
2023/10/31 05:15:00;;;;;;;0.50;0.20;;;11.60;1.00;;;;;;4867114;29;20970;-76
2023/10/31 05:17:28;;;;;;;1.23;0.40;;;11.60;1.00;;;;;;4858463;29;20455;-76
2023/10/31 05:19:57;;;;;;;0.70;0.60;;;11.60;1.00;;;;;;4861746;29;20485;-77
2023/10/31 05:22:25;;;;;;;0.50;0.10;;;11.70;1.00;;;;;;4892262;23;20535;-72
2023/10/31 05:24:53;;;;;;;0.50;0.10;;;11.70;1.00;;;;;;4869743;29;20499;-72
2023/10/31 05:27:21;;;;;;;0.50;0.10;;;11.80;1.00;;;;;;4861267;29;20460;-71
2023/10/31 05:29:49;;;;;;;0.60;0.20;;;11.80;1.00;;;;;;4855341;29;20549;-72
2023/10/31 05:32:17;;;;;;;0.60;0.30;;;11.80;1.00;;;;;;4857101;29;20512;-72
2023/10/31 05:34:45;;;;;;;0.60;0.27;;;11.80;1.00;;;;;;4844924;29;20459;-72
2023/10/31 05:37:14;;;;;;;0.50;0.30;;;11.80;99.90;;;;;;4846667;29;21012;-71
2023/10/31 05:39:42;;;;;;;0.50;0.10;;;11.90;99.90;;;;;;4841487;29;20570;-70
2023/10/31 05:42:10;;;;;;;0.50;0.20;;;11.90;99.90;;;;;;4858364;29;20570;-71
2023/10/31 05:44:39;;;;;;;0.50;0.20;;;11.90;99.90;;;;;;4858794;29;20546;-72
2023/10/31 05:47:07;;;;;;;0.50;0.20;;;12.00;99.90;;;;;;4851267;29;20501;-72
2023/10/31 05:49:35;;;;;;;0.60;0.33;;;11.90;99.90;;;;;;4858897;29;20476;-72
2023/10/31 05:52:03;;;;;;;1.10;0.23;;;11.90;99.90;;;;;;4858572;29;20525;-72
2023/10/31 05:54:32;;;;;;;0.50;0.20;;;11.90;99.90;;;;;;4861757;29;20462;-71
2023/10/31 05:57:00;;;;;;;0.50;0.20;;;11.90;99.90;;;;;;4855232;29;20457;-72
2023/10/31 05:59:28;;;;;;;0.50;0.10;;;11.90;99.90;;;;;;4862546;29;20577;-71
2023/10/31 06:01:56;;;;;;;0.70;0.60;;;11.90;99.90;;;;;;4861261;29;20479;-72
2023/10/31 06:04:24;;;;;;;0.80;0.43;;;11.80;99.90;;;;;;4862111;29;20507;-72
2023/10/31 06:06:52;;;;;;;0.50;0.20;;;11.90;99.90;;;;;;4862804;29;20454;-73
2023/10/31 06:09:20;;;;;;;0.53;0.20;;;11.90;99.90;;;;;;4863030;29;20452;-71
2023/10/31 06:11:49;;;;;;;0.50;0.20;;;11.80;99.90;;;;;;4862470;29;20515;-72
2023/10/31 06:14:17;;;;;;;0.80;0.60;;;11.80;99.90;;;;;;4863214;29;20491;-70
2023/10/31 06:16:45;;;;;;;0.50;0.20;;;11.80;99.90;;;;;;4863601;29;20464;-71
2023/10/31 06:19:13;;;;;;;0.50;0.20;;;11.70;99.90;;;;;;4856404;29;20501;-72
2023/10/31 06:21:41;;;;;;;0.70;0.50;;;;;;;;;;4853909;29;21078;-71
2023/10/31 06:24:10;;;;;;;1.03;0.83;;;11.70;99.90;;;;;;4856862;29;20491;-71
2023/10/31 06:26:38;;;;;;;0.70;0.47;;;11.80;99.90;;;;;;4861748;29;20478;-71
2023/10/31 06:29:07;;;;;;;0.50;0.10;;;11.80;99.90;;;;;;4862250;29;20500;-71
2023/10/31 06:31:55;;;;;;;0.90;0.40;;;11.90;99.90;;;;;;4858866;29;20488;-71
2023/10/31 06:34:23;;;;;;;0.50;0.20;;;11.90;99.90;;;;;;4857172;29;20462;-71
2023/10/31 06:36:52;;;;;;;0.50;0.10;;;;;;;;;;4854369;29;20476;-73
2023/10/31 06:39:22;;;;;;;0.50;0.10;;;11.90;99.90;;;;;;4862584;29;20550;-70
2023/10/31 06:41:50;;;;;;;0.50;0.13;;;11.90;99.90;;;;;;4853690;29;20896;-70
2023/10/31 06:44:20;;;;;;;0.60;0.40;;;;;;;;;;4861160;29;20455;-69
2023/10/31 06:46:48;;;;;;;0.60;0.20;;;;;;;;;;4861705;29;20445;-73
2023/10/31 06:49:16;;;;;;;0.50;0.10;;;11.80;99.90;;;;;;4861628;29;20452;-72
2023/10/31 06:51:44;;;;;;;1.43;0.37;;;11.80;99.90;;;;;;4860984;29;20568;-70
2023/10/31 06:54:12;;;;;;;0.60;0.30;;;11.90;99.90;;;;;;4861491;29;20456;-72
2023/10/31 06:56:40;;;;;;;0.60;0.20;;;11.80;99.90;;;;;;4860688;29;20447;-71
2023/10/31 06:59:08;;;;;;;0.50;0.10;;;11.80;99.90;;;;;;4861800;29;20451;-73
2023/10/31 07:01:37;;;;;;;0.50;0.30;;;11.80;99.90;;;;;;4860783;29;20471;-71
2023/10/31 07:04:06;;;;;;;0.50;0.20;;;;;;;;;;4850338;29;20851;-71
2023/10/31 07:06:34;;;;;;;0.57;0.27;;;;;;;;;;4857245;29;20870;-71
2023/10/31 07:09:05;;;;;;;0.50;0.17;;;11.80;99.90;;;;;;4853387;29;20522;-70
2023/10/31 07:11:34;;;;;;;0.50;0.20;;;11.80;99.90;;;;;;4867828;29;20466;-69
2023/10/31 07:14:02;;;;;;;0.70;0.47;;;11.70;99.90;;;;;;4845836;29;20820;-75
2023/10/31 07:16:30;;;;;;;0.50;0.20;;;11.70;99.90;;;;;;4861026;29;20482;-72
2023/10/31 07:19:00;;;;;;;4.83;0.47;;;11.70;99.90;;;;;;4861645;29;20460;-72
2023/10/31 07:21:28;;;;;;;0.50;0.10;;;11.70;99.90;;;;;;4860942;29;20494;-72
2023/10/31 07:23:56;;;;;;;0.80;0.50;;;11.80;99.90;;;;;;4861128;29;20507;-72
2023/10/31 07:26:24;;;;;;;0.50;0.10;;;;;;;;;;4861660;29;20535;-72
2023/10/31 07:28:52;;;;;;;0.50;0.10;;;11.80;99.90;;;;;;4861235;29;21194;-72
2023/10/31 07:31:20;;;;;;;0.80;0.40;;;;;;;;;;4861413;29;20475;-74
2023/10/31 07:33:48;;;;;;;0.60;0.30;;;11.80;99.90;;;;;;4859225;29;20456;-71
2023/10/31 07:36:18;;;;;;;0.50;0.20;;;11.80;99.90;;;;;;4861343;29;20460;-72
2023/10/31 07:38:45;;;;;;;0.70;0.50;;;11.80;99.90;;;;;;4861245;29;20448;-72
2023/10/31 07:41:13;;;;;;;0.50;0.10;;;11.80;99.90;;;;;;4861185;29;20579;-72
2023/10/31 07:43:41;;;;;;;0.50;0.20;;;11.70;99.90;;;;;;4860903;29;20458;-73
2023/10/31 07:46:09;;;;;;;0.50;0.10;;;11.70;99.90;;;;;;4860858;29;20459;-72
2023/10/31 07:48:38;;;;;;;0.50;0.20;;;11.60;99.90;;;;;;4860822;29;20456;-70
2023/10/31 07:51:07;;;;;;;0.50;0.20;;;11.70;99.90;;;;;;4860756;29;20848;-72
2023/10/31 07:53:36;;;;;;;0.60;0.30;;;11.60;99.90;;;;;;4861076;29;20550;-71
2023/10/31 07:56:05;;;;;;;3.80;3.60;;;11.80;99.90;;;;;;4861079;29;20503;-73
2023/10/31 07:58:33;;;;;;;0.60;0.23;;;11.70;99.90;;;;;;4860771;29;20454;-71
2023/10/31 08:01:00;;;;;;;0.83;0.70;;;11.70;99.90;;;;;;4860627;29;20589;-71
2023/10/31 08:03:29;;;;;;;0.53;0.20;;;;;;;;;;4861389;29;20541;-73
2023/10/31 08:05:57;;;;;;;0.50;0.30;;;11.60;99.90;;;;;;4862048;29;20463;-69
2023/10/31 08:08:24;;;;;;;0.50;0.20;;;11.70;99.90;;;;;;4854689;29;20516;-68
2023/10/31 08:10:54;;;;;;;0.77;0.60;;;11.70;99.90;;;;;;4852992;29;20506;-69
2023/10/31 08:13:21;;;;;;;1.23;0.40;;;11.80;99.90;;;;;;4851089;29;20488;-71
2023/10/31 08:15:49;;;;;;;0.60;0.13;;;;;;;;;;4850852;29;20464;-72
2023/10/31 08:18:17;;;;;;;0.50;0.20;;;11.80;99.90;;;;;;4850876;29;20547;-70
2023/10/31 08:20:48;;;;;;;0.80;0.47;;;;;;;;;;4857772;29;20574;-72
2023/10/31 08:23:17;;;;;;;0.70;0.53;;;11.80;99.90;;;;;;4858477;29;20458;-68
2023/10/31 08:25:45;;;;;;;0.50;0.10;;;11.70;99.90;;;;;;4855414;29;20588;-69
2023/10/31 08:28:14;;;;;;;1.20;0.37;;;;;;;;;;4861371;29;20483;-70
2023/10/31 08:30:42;;;;;;;0.90;0.20;;;11.90;99.90;;;;;;4868072;29;20503;-73
2023/10/31 08:33:10;;;;;;;0.50;0.20;;;11.90;99.90;;;;;;4864835;29;20482;-69
2023/10/31 08:35:38;;;;;;;0.80;0.40;;;11.90;99.90;;;;;;4856344;29;20538;-70
2023/10/31 08:38:06;;;;;;;0.50;0.10;;;11.80;99.90;;;;;;4852977;29;20565;-70
2023/10/31 08:40:42;;;;;;;1.13;0.40;;;;;;;;;;4852177;29;20486;-73
2023/10/31 08:43:10;;;;;;;0.50;0.20;;;;;;;;;;4852930;29;20444;-72
2023/10/31 08:45:39;;;;;;;0.50;0.10;;;12.00;99.90;;;;;;4867709;29;20542;-72
2023/10/31 08:48:07;;;;;;;0.50;0.20;;;12.00;99.90;;;;;;4870959;29;20954;-69
2023/10/31 08:50:35;;;;;;;3.03;0.77;;;12.10;99.90;;;;;;4871275;29;20763;-71
2023/10/31 08:53:03;;;;;;;0.60;0.40;;;12.00;99.90;;;;;;4850630;29;20876;-69
2023/10/31 08:55:31;;;;;;;1.33;0.40;;;12.00;99.90;;;;;;4863449;29;20458;-69
2023/10/31 08:57:59;;;;;;;0.50;0.20;;;12.10;99.90;;;;;;4850498;29;20872;-68
2023/10/31 09:00:28;;;;;;;0.67;0.17;;;;;;;;;;4860429;29;20568;-69
2023/10/31 09:02:57;;;;;;;0.50;0.10;;;12.20;99.90;;;;;;4861276;29;20539;-73
2023/10/31 09:05:25;;;;;;;0.80;0.30;;;12.20;99.90;;;;;;4865469;29;20474;-69
2023/10/31 09:07:53;;;;;;;0.63;0.20;;;12.10;99.90;;;;;;4861300;29;20464;-70
2023/10/31 09:10:25;;;;;;;1.80;0.60;;;;;;;;;;4862520;29;20456;-71
2023/10/31 09:12:52;;;;;;;0.60;0.20;;;12.20;99.90;;;;;;4858103;29;20456;-70
2023/10/31 09:15:21;;;;;;;0.50;0.10;;;;;;;;;;4855370;29;20497;-73
2023/10/31 09:17:49;;;;;;;0.57;0.27;;;12.30;99.90;;;;;;4856692;29;20469;-71
2023/10/31 09:20:20;;;;;;;0.97;0.60;;;12.30;99.90;;;;;;4859984;29;20452;-70
2023/10/31 09:22:48;;;;;;;1.13;0.30;;;12.30;99.90;;;;;;4858691;29;20911;-69
2023/10/31 09:25:16;;;;;;;0.70;0.40;;;;;;;;;;4859588;29;20453;-69
2023/10/31 09:27:44;;;;;;;0.80;0.50;;;12.20;99.90;;;;;;4859235;29;20974;-68
2023/10/31 09:30:12;;;;;;;0.50;0.10;;;;;;;;;;4852285;29;20448;-70
2023/10/31 09:32:40;;;;;;;3.07;1.10;;;12.40;99.90;;;;;;4852287;29;21006;-69
2023/10/31 09:35:09;;;;;;;0.50;0.20;;;12.50;99.90;;;;;;4858320;29;20543;-72
2023/10/31 09:37:40;;;;;;;0.60;0.20;;;12.60;99.90;;;;;;4858950;29;20460;-73
2023/10/31 09:40:09;;;;;;;0.70;0.37;;;12.60;99.90;;;;;;4851350;29;20531;-69
2023/10/31 09:42:37;;;;;;;3.03;0.40;;;12.60;99.90;;;;;;4858882;29;20532;-69
2023/10/31 09:45:06;;;;;;;0.80;0.80;;;12.70;99.90;;;;;;4844037;29;20533;-70
2023/10/31 09:47:34;;;;;;;0.60;0.20;;;12.60;99.90;;;;;;4844905;29;20525;-70
2023/10/31 09:50:02;;;;;;;1.33;0.50;;;12.70;99.90;;;;;;4849891;29;20458;-70
2023/10/31 09:52:30;;;;;;;0.60;0.20;;;12.70;99.90;;;;;;4851086;29;20573;-69
2023/10/31 09:55:00;;;;;;;1.70;0.90;;;12.70;99.90;;;;;;4858894;29;20549;-69
2023/10/31 09:57:28;;;;;;;0.70;0.40;;;12.70;99.90;;;;;;4858755;29;20448;-70
2023/10/31 09:59:56;;;;;;;0.60;0.30;;;12.80;99.90;;;;;;4851339;29;20454;-72
2023/10/31 10:02:25;;;;;;;2.10;0.50;;;12.80;99.90;;;;;;4858584;29;20494;-69
2023/10/31 10:04:53;;;;;;;0.60;0.40;;;12.70;99.90;;;;;;4842999;29;20510;-69
2023/10/31 10:07:21;;;;;;;0.90;0.30;;;;;;;;;;4840713;29;20903;-72
2023/10/31 10:09:50;;;;;;;0.70;0.30;;;;;;;;;;4848407;29;20495;-73
2023/10/31 10:12:19;;;;;;;1.90;0.50;;;12.90;99.90;;;;;;4859321;29;20469;-71
2023/10/31 10:14:48;;;;;;;0.73;0.20;;;;;;;;;;4859199;29;20458;-78
2023/10/31 10:17:17;;;;;;;1.53;0.40;;;13.20;99.90;;;;;;4852242;29;20541;-73
2023/10/31 10:19:45;;;;;;;0.60;0.37;;;13.10;99.90;;;;;;4852334;29;20573;-69
2023/10/31 10:22:14;;;;;;;0.70;0.30;;;13.00;99.90;;;;;;4852072;29;20494;-68
2023/10/31 10:24:43;;;;;;;0.60;0.20;;;13.00;99.90;;;;;;4860144;29;20495;-71
2023/10/31 10:27:11;;;;;;;0.60;0.20;;;13.10;99.90;;;;;;4860501;29;20449;-69
2023/10/31 10:29:41;;;;;;;0.60;0.20;;;13.20;99.90;;;;;;4860950;29;20533;-71
2023/10/31 10:32:09;;;;;;;0.60;0.43;;;13.30;99.90;;;;;;4859405;29;20472;-69
2023/10/31 10:34:37;;;;;;;1.00;0.50;;;13.30;99.90;;;;;;4845444;29;20459;-69
2023/10/31 10:37:07;;;;;;;3.63;2.73;;;13.20;99.90;;;;;;4858006;29;20461;-68
2023/10/31 10:39:36;;;;;;;0.60;0.10;;;13.30;99.90;;;;;;4860227;29;20480;-68
2023/10/31 10:42:10;;;;;;;0.60;0.10;;;13.30;99.90;;;;;;4854715;29;20581;-72
2023/10/31 10:44:42;;;;;;;0.50;0.10;;;13.30;99.90;;;;;;4855074;29;20465;-69
2023/10/31 10:47:12;;;;;;;0.60;0.10;;;13.40;99.90;;;;;;4844853;29;20450;-72
2023/10/31 10:49:43;;;;;;;0.57;0.10;;;13.40;99.90;;;;;;4858333;29;20561;-70
2023/10/31 10:52:19;;;;;;;6.10;0.47;;;13.30;99.90;;;;;;4854124;29;20476;-69
2023/10/31 10:54:55;;;;;;;1.00;0.40;;;13.30;99.90;;;;;;4861789;29;20457;-70
2023/10/31 10:57:32;;;;;;;1.00;0.30;;;13.30;99.90;;;;;;4851787;29;20569;-71
2023/10/31 11:00:06;;;;;;;0.50;0.10;;;13.30;99.90;;;;;;4852793;29;20453;-69
2023/10/31 11:02:35;;;;;;;0.50;0.20;;;13.20;99.90;;;;;;4862272;29;20549;-69
2023/10/31 11:05:06;;;;;;;1.87;0.30;;;13.30;99.90;;;;;;4854606;29;20790;-72
2023/10/31 11:07:35;;;;;;;0.60;0.30;;;13.50;99.90;;;;;;4856307;29;20511;-70
2023/10/31 11:10:04;;;;;;;0.57;0.13;;;13.60;99.90;;;;;;4852591;29;20552;-69
2023/10/31 11:12:33;;;;;;;0.70;0.40;;;13.70;99.90;;;;;;4861727;29;20529;-69
2023/10/31 11:15:04;;;;;;;0.60;0.17;;;13.80;99.90;;;;;;4861752;29;20514;-71
2023/10/31 11:17:35;;;;;;;0.60;0.20;;;13.90;99.90;;;;;;4856135;29;20462;-69
2023/10/31 11:20:04;;;;;;;0.60;0.10;;;14.00;99.90;;;;;;4851970;29;20458;-72
2023/10/31 11:22:39;;;;;;;0.60;0.13;;;14.10;99.90;;;;;;4856221;29;20511;-70
2023/10/31 11:25:08;;;;;;;1.63;0.73;;;14.10;99.90;;;;;;4860486;29;20458;-71
2023/10/31 11:27:46;;;;;;;0.60;0.10;;;14.00;99.90;;;;;;4862209;29;20548;-71
2023/10/31 11:30:23;;;;;;;0.60;0.10;;;14.10;99.90;;;;;;4860981;29;20445;-72
2023/10/31 11:32:53;;;;;;;0.60;0.20;;;14.20;99.90;;;;;;4861046;29;20450;-71
2023/10/31 11:35:22;;;;;;;1.23;0.60;;;14.20;99.90;;;;;;4858394;29;20504;-71
2023/10/31 11:38:01;;;;;;;1.17;0.93;;;14.10;99.90;;;;;;4862310;29;20541;-71
2023/10/31 11:40:29;;;;;;;0.60;0.10;;;14.00;99.90;;;;;;4863040;29;20461;-73
2023/10/31 11:43:00;;;;;;;0.60;0.10;;;14.00;99.90;;;;;;4856693;29;20590;-71
2023/10/31 11:45:32;;;;;;;0.60;0.10;;;14.00;99.90;;;;;;4864545;29;20539;-74
2023/10/31 11:48:00;;;;;;;0.60;0.20;;;14.00;99.90;;;;;;4861939;29;20805;-71
2023/10/31 11:50:28;;;;;;;0.70;0.17;;;14.00;99.90;;;;;;4861638;29;20632;-72
2023/10/31 11:53:04;;;;;;;0.60;0.20;;;14.10;99.90;;;;;;4860659;29;20510;-71
2023/10/31 11:55:35;;;;;;;0.60;0.10;;;14.20;99.90;;;;;;4862353;29;20449;-70
2023/10/31 11:58:17;;;;;;;0.60;0.10;;;14.30;99.90;;;;;;4862605;29;20831;-72
2023/10/31 12:00:49;;;;;;;0.60;0.20;;;14.10;99.90;;;;;;4860842;29;20469;-72
2023/10/31 12:03:19;;;;;;;6.43;1.03;;;14.10;99.90;;;;;;4861496;29;20584;-72
2023/10/31 12:05:55;;;;;;;0.60;0.20;;;14.10;99.90;;;;;;4861611;29;20502;-72
2023/10/31 12:08:28;;;;;;;0.83;0.63;;;14.30;99.90;;;;;;4860921;29;20454;-72
2023/10/31 12:11:07;;;;;;;0.60;0.10;;;14.30;99.90;;;;;;4860382;29;20554;-70
2023/10/31 12:13:37;;;;;;;2.50;0.30;;;14.30;99.90;;;;;;4860949;29;20453;-72
2023/10/31 12:16:09;;;;;;;0.70;0.20;;;14.10;99.90;;;;;;4860668;29;20481;-72
2023/10/31 12:18:38;;;;;;;0.60;0.20;;;14.20;99.90;;;;;;4860954;29;20454;-72
2023/10/31 12:21:08;;;;;;;0.60;0.10;;;14.20;99.90;;;;;;4860732;29;20469;-72
2023/10/31 12:23:36;;;;;;;1.00;0.60;;;14.20;99.90;;;;;;4860523;29;20490;-71
2023/10/31 12:26:04;;;;;;;0.60;0.10;;;14.30;99.90;;;;;;4861279;29;20457;-71
2023/10/31 12:28:32;;;;;;;0.60;0.10;;;14.30;99.90;;;;;;4860483;29;20461;-71
2023/10/31 12:31:03;;;;;;;0.60;0.10;;;14.40;99.90;;;;;;4861783;29;20483;-70
2023/10/31 12:33:32;;;;;;;0.60;0.20;;;14.40;99.90;;;;;;4852109;29;20877;-70
2023/10/31 12:36:01;;;;;;;0.60;0.20;;;14.50;99.90;;;;;;4857871;29;20537;-70
2023/10/31 12:38:30;;;;;;;0.60;0.30;;;;;;;;;;4861132;29;20938;-73
2023/10/31 12:40:58;;;;;;;0.97;0.50;;;14.40;99.90;;;;;;4862548;29;20556;-73
2023/10/31 12:43:27;;;;;;;0.60;0.20;;;14.40;99.90;;;;;;4863434;29;20586;-72
2023/10/31 12:45:55;;;;;;;0.80;0.40;;;14.40;99.90;;;;;;4862799;29;20860;-73
2023/10/31 12:48:25;;;;;;;1.37;0.67;;;14.30;99.90;;;;;;4861224;29;20454;-72
2023/10/31 12:51:09;;;;;;;0.60;0.10;;;14.40;99.90;;;;;;4862931;29;20529;-71
2023/10/31 12:53:37;;;;;;;0.60;0.10;;;;;;;;;;4864202;29;20488;-71
2023/10/31 12:56:05;;;;;;;0.70;0.50;;;14.40;99.90;;;;;;4863259;29;20464;-71
2023/10/31 12:58:34;;;;;;;0.70;0.30;;;14.30;99.90;;;;;;4861891;29;20507;-72
2023/10/31 13:01:02;;;;;;;0.60;0.10;;;14.20;99.90;;;;;;4860604;29;20954;-72
2023/10/31 13:03:30;;;;;;;0.60;0.30;;;14.30;99.90;;;;;;4854385;29;20491;-71
2023/10/31 13:05:58;;;;;;;0.60;0.10;;;14.40;99.90;;;;;;4860308;29;20979;-71
2023/10/31 13:08:27;;;;;;;0.60;0.20;;;14.40;99.90;;;;;;4860543;29;20518;-71
2023/10/31 13:10:57;;;;;;;0.60;0.10;;;14.40;99.90;;;;;;4860170;29;20474;-70
2023/10/31 13:13:25;;;;;;;0.60;0.10;;;14.50;99.90;;;;;;4861224;29;20445;-71
2023/10/31 13:15:53;;;;;;;0.60;0.10;;;14.60;99.90;;;;;;4860623;29;21269;-71
2023/10/31 13:18:22;;;;;;;0.60;0.10;;;14.70;99.90;;;;;;4862800;29;20457;-72
2023/10/31 13:20:50;;;;;;;0.60;0.20;;;14.70;99.90;;;;;;4863269;29;20476;-71
2023/10/31 13:23:18;;;;;;;0.60;0.20;;;14.70;99.90;;;;;;4863350;29;20490;-71
2023/10/31 13:25:49;;;;;;;0.60;0.10;;;14.70;99.90;;;;;;4863772;29;20446;-70
2023/10/31 13:28:17;;;;;;;0.60;0.10;;;14.70;99.90;;;;;;4862931;29;20878;-72
2023/10/31 13:30:46;;;;;;;0.60;0.20;;;14.60;99.90;;;;;;4863454;29;20545;-71
2023/10/31 13:33:14;;;;;;;0.60;0.20;;;14.60;99.90;;;;;;4856458;29;20497;-70
2023/10/31 13:35:42;;;;;;;0.60;0.20;;;14.50;99.90;;;;;;4860337;29;20780;-72
2023/10/31 13:38:10;;;;;;;0.60;0.10;;;14.60;99.90;;;;;;4862453;29;20450;-72
2023/10/31 13:40:39;;;;;;;0.70;0.20;;;14.60;99.90;;;;;;4862060;29;20490;-73
2023/10/31 13:43:08;;;;;;;0.60;0.10;;;14.60;99.90;;;;;;4861338;29;20498;-73
2023/10/31 13:45:36;;;;;;;0.60;0.20;;;14.60;99.90;;;;;;4862187;29;20515;-74
2023/10/31 13:48:04;;;;;;;0.60;0.10;;;14.50;99.90;;;;;;4862339;29;20492;-71
2023/10/31 13:50:33;;;;;;;0.60;0.10;;;14.60;99.90;;;;;;4861671;29;20482;-74
2023/10/31 13:53:03;;;;;;;0.60;0.30;;;14.60;99.90;;;;;;4864180;29;20489;-73
2023/10/31 13:55:30;;;;;;;0.60;0.10;;;14.70;99.90;;;;;;4865457;29;20586;-72
2023/10/31 13:57:58;;;;;;;0.60;0.10;;;14.70;99.90;;;;;;4862702;29;20486;-73
2023/10/31 14:00:28;;;;;;;0.70;0.47;;;14.80;99.90;;;;;;4861538;29;20450;-73
2023/10/31 14:02:56;;;;;;;2.80;0.93;;;14.70;99.90;;;;;;4861029;29;20507;-72
2023/10/31 14:05:24;;;;;;;0.60;0.10;;;14.80;99.90;;;;;;4861523;29;20454;-73
2023/10/31 14:07:53;;;;;;;1.33;1.00;;;;;;;;;;4861327;29;20845;-72
2023/10/31 14:10:23;;;;;;;0.60;0.10;;;15.00;99.90;;;;;;4861094;29;20478;-73
2023/10/31 14:12:52;;;;;;;0.60;0.10;;;;;;;;;;4860267;29;20489;-74
2023/10/31 14:15:22;;;;;;;0.60;0.10;;;15.30;99.90;;;;;;4862141;29;20990;-73
2023/10/31 14:17:51;;;;;;;0.97;0.67;;;15.30;99.90;;;;;;4864185;29;20451;-71
2023/10/31 14:20:19;;;;;;;0.60;0.10;;;15.40;99.90;;;;;;4864104;29;20450;-72
2023/10/31 14:22:50;;;;;;;0.60;0.10;;;15.40;99.90;;;;;;4864340;29;20479;-74
2023/10/31 14:25:18;;;;;;;1.10;0.40;;;15.50;99.90;;;;;;4863987;29;20518;-72
2023/10/31 14:27:46;;;;;;;0.60;0.30;;;15.40;99.90;;;;;;4863307;29;20493;-74
2023/10/31 14:30:14;;;;;;;0.60;0.20;;;15.20;99.90;;;;;;4863235;29;20623;-73
2023/10/31 14:32:42;;;;;;;0.70;0.20;;;15.20;99.90;;;;;;4857578;29;20500;-72
2023/10/31 14:35:11;;;;;;;1.00;0.30;;;15.20;99.90;;;;;;4848324;29;20479;-73
2023/10/31 14:37:39;;;;;;;0.60;0.20;;;15.20;99.90;;;;;;4863011;29;21007;-73
2023/10/31 14:40:08;;;;;;;0.90;0.20;;;15.30;99.90;;;;;;4863046;29;20538;-73
2023/10/31 14:42:36;;;;;;;0.60;0.10;;;15.40;99.90;;;;;;4863270;29;20471;-73
2023/10/31 14:45:05;;;;;;;2.87;0.43;;;15.40;99.90;;;;;;4863091;29;20486;-72
2023/10/31 14:47:33;;;;;;;0.60;0.20;;;;;;;;;;4863213;29;20811;-70
2023/10/31 14:50:01;;;;;;;0.80;0.60;;;15.20;99.90;;;;;;4863301;29;20461;-71
2023/10/31 14:52:30;;;;;;;0.80;0.40;;;15.20;99.90;;;;;;4855870;29;20470;-74
2023/10/31 14:54:58;;;;;;;3.17;0.50;;;15.10;99.90;;;;;;4862697;29;20482;-72
2023/10/31 14:57:26;;;;;;;0.60;0.30;;;14.90;99.90;;;;;;4863352;29;20511;-71
2023/10/31 14:59:56;;;;;;;0.60;0.17;;;14.70;99.90;;;;;;4862524;29;20459;-71
2023/10/31 15:02:24;;;;;;;3.37;0.43;;;14.70;99.90;;;;;;4862371;29;20474;-71
2023/10/31 15:04:52;;;;;;;0.70;0.20;;;14.70;99.90;;;;;;4862948;29;20483;-71
2023/10/31 15:07:21;;;;;;;0.60;0.10;;;14.70;99.90;;;;;;4862146;29;20467;-70
2023/10/31 15:09:50;;;;;;;5.90;0.53;;;14.70;99.90;;;;;;4862587;29;21014;-72
2023/10/31 15:12:18;;;;;;;0.60;0.10;;;14.70;99.90;;;;;;4862504;29;20562;-72
2023/10/31 15:14:46;;;;;;;0.90;0.60;;;;;;;;;;4862410;29;20551;-73
2023/10/31 15:17:14;;;;;;;0.60;0.20;;;14.60;99.90;;;;;;4862128;29;20481;-72
2023/10/31 15:19:42;;;;;;;0.80;0.20;;;14.60;99.90;;;;;;4861681;29;20454;-72
2023/10/31 15:22:10;;;;;;;0.60;0.10;;;;;;;;;;4861623;29;20572;-70
2023/10/31 15:24:38;;;;;;;0.60;0.30;;;;;;;;;;4863501;29;20554;-71
2023/10/31 15:27:07;;;;;;;0.60;0.20;;;14.60;99.90;;;;;;4862871;29;20823;-70
2023/10/31 15:29:35;;;;;;;0.60;0.20;;;14.60;99.90;;;;;;4863370;29;21089;-72
2023/10/31 15:32:07;;;;;;;0.60;0.17;;;14.60;99.90;;;;;;4862540;29;20467;-72
2023/10/31 15:34:36;;;;;;;0.60;0.20;;;14.60;99.90;;;;;;4851555;29;20458;-71
2023/10/31 15:37:04;;;;;;;1.47;0.30;;;14.50;99.90;;;;;;4862625;29;20778;-71
2023/10/31 15:39:32;;;;;;;3.47;1.30;;;14.40;99.90;;;;;;4863430;29;20453;-72
2023/10/31 15:42:00;;;;;;;0.60;0.40;;;14.40;99.90;;;;;;4863160;29;20534;-72
2023/10/31 15:44:29;;;;;;;0.60;0.20;;;14.50;99.90;;;;;;4855188;29;20497;-72
2023/10/31 15:46:57;;;;;;;0.60;0.20;;;14.50;99.90;;;;;;4861932;29;20518;-72
2023/10/31 15:49:25;;;;;;;0.60;0.10;;;14.50;99.90;;;;;;4863578;29;20465;-71
2023/10/31 15:51:53;;;;;;;0.60;0.20;;;14.50;99.90;;;;;;4862934;29;21008;-71
2023/10/31 15:54:21;;;;;;;1.07;0.30;;;14.40;99.90;;;;;;4862767;29;20454;-73
2023/10/31 15:56:49;;;;;;;0.60;0.20;;;;;;;;;;4863307;29;20474;-72
2023/10/31 15:59:17;;;;;;;0.60;0.30;;;14.30;99.90;;;;;;4862290;29;20885;-73
2023/10/31 16:01:46;;;;;;;0.70;0.40;;;14.20;99.90;;;;;;4862211;29;20506;-72
2023/10/31 16:04:15;;;;;;;4.97;0.90;;;14.20;99.90;;;;;;4862302;29;20528;-71
2023/10/31 16:06:43;;;;;;;0.60;0.20;;;14.20;99.90;;;;;;4861904;29;20759;-71
2023/10/31 16:09:11;;;;;;;0.60;0.20;;;14.30;99.90;;;;;;4862363;29;20493;-71
2023/10/31 16:11:39;;;;;;;1.10;0.40;;;14.30;99.90;;;;;;4862042;29;20564;-71
2023/10/31 16:14:08;;;;;;;2.70;0.60;;;;;;;;;;4862977;29;20457;-71
2023/10/31 16:16:36;;;;;;;0.60;0.10;;;14.30;99.90;;;;;;4865075;29;20450;-71
2023/10/31 16:19:05;;;;;;;0.60;0.10;;;14.40;99.90;;;;;;4863657;29;20503;-74
2023/10/31 16:21:33;;;;;;;0.60;0.17;;;14.30;99.90;;;;;;4855596;29;20500;-71
2023/10/31 16:24:01;;;;;;;0.60;0.10;;;;;;;;;;4863967;29;20904;-73
2023/10/31 16:26:29;;;;;;;0.70;0.33;;;14.30;99.90;;;;;;4863384;29;20500;-73
2023/10/31 16:28:57;;;;;;;0.80;0.27;;;;;;;;;;4863392;29;20454;-72
2023/10/31 16:31:26;;;;;;;0.70;0.30;;;14.30;99.90;;;;;;4862091;29;20502;-71
2023/10/31 16:33:54;;;;;;;0.70;0.40;;;14.30;99.90;;;;;;4851260;29;20459;-72
2023/10/31 16:36:24;;;;;;;8.60;0.97;;;14.20;99.90;;;;;;4860427;29;20517;-70
2023/10/31 16:38:53;;;;;;;0.60;0.20;;;;;;;;;;4860761;29;20456;-71
2023/10/31 16:41:21;;;;;;;0.60;0.20;;;;;;;;;;4860279;29;20565;-70
2023/10/31 16:43:50;;;;;;;0.60;0.10;;;14.30;99.90;;;;;;4860437;29;20456;-70
2023/10/31 16:46:18;;;;;;;0.60;0.10;;;14.30;99.90;;;;;;4860487;29;20504;-71
2023/10/31 16:48:46;;;;;;;0.60;0.10;;;14.20;99.90;;;;;;4860831;29;20458;-71
2023/10/31 16:51:18;;;;;;;0.60;0.10;;;14.30;99.90;;;;;;4860484;29;20504;-70
2023/10/31 16:53:48;;;;;;;0.60;0.10;;;14.30;99.90;;;;;;4860455;29;20466;-70
2023/10/31 16:56:17;;;;;;;0.60;0.20;;;14.30;99.90;;;;;;4860618;29;20457;-74
2023/10/31 16:58:45;;;;;;;0.90;0.50;;;14.40;99.90;;;;;;4860189;29;20458;-70
2023/10/31 17:01:14;;;;;;;0.80;0.63;;;;;;;;;;4860111;29;20493;-70
2023/10/31 17:03:42;;;;;;;0.60;0.10;;;14.20;99.90;;;;;;4860803;29;20843;-73
2023/10/31 17:06:10;;;;;;;0.60;0.10;;;14.20;99.90;;;;;;4860962;29;20561;-72
2023/10/31 17:08:40;;;;;;;0.60;0.10;;;14.30;99.90;;;;;;4861996;29;20504;-72